sensor_id;sensor_type;location;lat;lon;timestamp;P1;durP1;ratioP1;P2;durP2;ratioP2
7759;SDS011;3924;48.830;9.262;2023-08-30T00:00:43;2.63;;;2.43;;
7759;SDS011;3924;48.830;9.262;2023-08-30T00:03:11;3.60;;;2.97;;
7759;SDS011;3924;48.830;9.262;2023-08-30T00:05:39;2.57;;;2.37;;
7759;SDS011;3924;48.830;9.262;2023-08-30T00:08:07;2.40;;;2.20;;
7759;SDS011;3924;48.830;9.262;2023-08-30T00:10:34;2.57;;;2.37;;
7759;SDS011;3924;48.830;9.262;2023-08-30T00:13:01;2.80;;;2.60;;
7759;SDS011;3924;48.830;9.262;2023-08-30T00:15:27;2.90;;;2.70;;
7759;SDS011;3924;48.830;9.262;2023-08-30T00:17:54;2.97;;;2.77;;
7759;SDS011;3924;48.830;9.262;2023-08-30T00:20:20;2.97;;;2.63;;
7759;SDS011;3924;48.830;9.262;2023-08-30T00:22:47;2.43;;;2.30;;
7759;SDS011;3924;48.830;9.262;2023-08-30T00:25:15;6.23;;;2.93;;
7759;SDS011;3924;48.830;9.262;2023-08-30T00:27:42;3.43;;;2.60;;
7759;SDS011;3924;48.830;9.262;2023-08-30T00:30:08;3.00;;;2.57;;
7759;SDS011;3924;48.830;9.262;2023-08-30T00:32:35;3.07;;;2.87;;
7759;SDS011;3924;48.830;9.262;2023-08-30T00:35:02;2.97;;;2.70;;
7759;SDS011;3924;48.830;9.262;2023-08-30T00:37:28;2.60;;;2.40;;
7759;SDS011;3924;48.830;9.262;2023-08-30T00:39:55;2.83;;;2.63;;
7759;SDS011;3924;48.830;9.262;2023-08-30T00:42:21;2.90;;;2.63;;
7759;SDS011;3924;48.830;9.262;2023-08-30T00:44:48;2.77;;;2.57;;
7759;SDS011;3924;48.830;9.262;2023-08-30T00:47:15;5.10;;;2.60;;
7759;SDS011;3924;48.830;9.262;2023-08-30T00:49:41;2.57;;;2.37;;
7759;SDS011;3924;48.830;9.262;2023-08-30T00:52:08;2.77;;;2.57;;
7759;SDS011;3924;48.830;9.262;2023-08-30T00:54:37;3.20;;;2.97;;
7759;SDS011;3924;48.830;9.262;2023-08-30T00:57:04;3.77;;;3.03;;
7759;SDS011;3924;48.830;9.262;2023-08-30T00:59:32;3.33;;;3.03;;
7759;SDS011;3924;48.830;9.262;2023-08-30T01:01:59;2.90;;;2.70;;
7759;SDS011;3924;48.830;9.262;2023-08-30T01:04:30;3.20;;;2.90;;
7759;SDS011;3924;48.830;9.262;2023-08-30T01:06:56;2.90;;;2.70;;
7759;SDS011;3924;48.830;9.262;2023-08-30T01:09:24;6.53;;;2.87;;
7759;SDS011;3924;48.830;9.262;2023-08-30T01:11:57;3.10;;;2.87;;
7759;SDS011;3924;48.830;9.262;2023-08-30T01:14:40;2.80;;;2.60;;
7759;SDS011;3924;48.830;9.262;2023-08-30T01:17:12;3.57;;;3.10;;
7759;SDS011;3924;48.830;9.262;2023-08-30T01:23:03;3.73;;;3.40;;
7759;SDS011;3924;48.830;9.262;2023-08-30T01:26:01;3.73;;;2.63;;
7759;SDS011;3924;48.830;9.262;2023-08-30T01:28:34;3.10;;;2.90;;
7759;SDS011;3924;48.830;9.262;2023-08-30T01:31:03;3.17;;;2.87;;
7759;SDS011;3924;48.830;9.262;2023-08-30T01:33:32;4.10;;;2.93;;
7759;SDS011;3924;48.830;9.262;2023-08-30T01:35:59;2.73;;;2.53;;
7759;SDS011;3924;48.830;9.262;2023-08-30T01:38:28;3.03;;;2.83;;
7759;SDS011;3924;48.830;9.262;2023-08-30T01:40:59;3.50;;;3.20;;
7759;SDS011;3924;48.830;9.262;2023-08-30T01:43:26;4.83;;;3.30;;
7759;SDS011;3924;48.830;9.262;2023-08-30T01:45:54;2.87;;;2.67;;
7759;SDS011;3924;48.830;9.262;2023-08-30T01:48:22;3.57;;;3.17;;
7759;SDS011;3924;48.830;9.262;2023-08-30T01:50:52;3.00;;;2.80;;
7759;SDS011;3924;48.830;9.262;2023-08-30T01:53:20;3.70;;;2.63;;
7759;SDS011;3924;48.830;9.262;2023-08-30T01:55:48;2.80;;;2.60;;
7759;SDS011;3924;48.830;9.262;2023-08-30T01:58:14;2.70;;;2.50;;
7759;SDS011;3924;48.830;9.262;2023-08-30T02:00:41;10.47;;;3.17;;
7759;SDS011;3924;48.830;9.262;2023-08-30T02:03:08;2.90;;;2.57;;
7759;SDS011;3924;48.830;9.262;2023-08-30T02:06:24;3.00;;;2.80;;
7759;SDS011;3924;48.830;9.262;2023-08-30T02:08:41;3.37;;;3.07;;
7759;SDS011;3924;48.830;9.262;2023-08-30T02:11:18;4.27;;;2.73;;
7759;SDS011;3924;48.830;9.262;2023-08-30T02:13:49;2.97;;;2.77;;
7759;SDS011;3924;48.830;9.262;2023-08-30T02:16:18;2.87;;;2.60;;
7759;SDS011;3924;48.830;9.262;2023-08-30T02:18:46;3.23;;;2.97;;
7759;SDS011;3924;48.830;9.262;2023-08-30T02:21:13;2.83;;;2.63;;
7759;SDS011;3924;48.830;9.262;2023-08-30T02:23:40;4.93;;;2.80;;
7759;SDS011;3924;48.830;9.262;2023-08-30T02:26:07;7.00;;;3.40;;
7759;SDS011;3924;48.830;9.262;2023-08-30T02:28:35;7.00;;;3.27;;
7759;SDS011;3924;48.830;9.262;2023-08-30T02:31:03;3.70;;;2.80;;
7759;SDS011;3924;48.830;9.262;2023-08-30T02:33:30;3.10;;;2.90;;
7759;SDS011;3924;48.830;9.262;2023-08-30T02:35:56;4.43;;;3.00;;
7759;SDS011;3924;48.830;9.262;2023-08-30T02:38:23;3.50;;;3.20;;
7759;SDS011;3924;48.830;9.262;2023-08-30T02:40:49;2.83;;;2.63;;
7759;SDS011;3924;48.830;9.262;2023-08-30T02:43:16;5.23;;;3.10;;
7759;SDS011;3924;48.830;9.262;2023-08-30T02:45:43;3.23;;;3.03;;
7759;SDS011;3924;48.830;9.262;2023-08-30T02:48:10;3.40;;;3.10;;
7759;SDS011;3924;48.830;9.262;2023-08-30T02:50:37;3.53;;;2.93;;
7759;SDS011;3924;48.830;9.262;2023-08-30T02:53:03;3.00;;;2.80;;
7759;SDS011;3924;48.830;9.262;2023-08-30T02:55:30;2.77;;;2.57;;
7759;SDS011;3924;48.830;9.262;2023-08-30T02:57:57;3.00;;;2.77;;
7759;SDS011;3924;48.830;9.262;2023-08-30T03:00:23;3.27;;;2.97;;
7759;SDS011;3924;48.830;9.262;2023-08-30T03:02:49;2.90;;;2.63;;
7759;SDS011;3924;48.830;9.262;2023-08-30T03:05:17;3.20;;;2.97;;
7759;SDS011;3924;48.830;9.262;2023-08-30T03:07:44;3.70;;;3.37;;
7759;SDS011;3924;48.830;9.262;2023-08-30T03:10:11;6.43;;;3.53;;
7759;SDS011;3924;48.830;9.262;2023-08-30T03:12:37;3.13;;;2.93;;
7759;SDS011;3924;48.830;9.262;2023-08-30T03:15:04;2.93;;;2.73;;
7759;SDS011;3924;48.830;9.262;2023-08-30T03:17:31;2.80;;;2.60;;
7759;SDS011;3924;48.830;9.262;2023-08-30T03:19:58;3.53;;;2.93;;
7759;SDS011;3924;48.830;9.262;2023-08-30T03:22:25;3.13;;;2.83;;
7759;SDS011;3924;48.830;9.262;2023-08-30T03:24:51;3.90;;;3.20;;
7759;SDS011;3924;48.830;9.262;2023-08-30T03:27:18;3.30;;;2.43;;
7759;SDS011;3924;48.830;9.262;2023-08-30T03:29:46;7.87;;;3.10;;
7759;SDS011;3924;48.830;9.262;2023-08-30T03:32:16;6.03;;;3.10;;
7759;SDS011;3924;48.830;9.262;2023-08-30T03:34:44;5.47;;;3.67;;
7759;SDS011;3924;48.830;9.262;2023-08-30T03:37:13;4.50;;;3.77;;
7759;SDS011;3924;48.830;9.262;2023-08-30T03:39:40;3.20;;;2.97;;
7759;SDS011;3924;48.830;9.262;2023-08-30T03:42:07;8.87;;;3.23;;
7759;SDS011;3924;48.830;9.262;2023-08-30T03:44:33;3.77;;;3.33;;
7759;SDS011;3924;48.830;9.262;2023-08-30T03:47:03;3.33;;;3.10;;
7759;SDS011;3924;48.830;9.262;2023-08-30T03:49:29;4.07;;;3.63;;
7759;SDS011;3924;48.830;9.262;2023-08-30T03:51:56;3.77;;;3.47;;
7759;SDS011;3924;48.830;9.262;2023-08-30T03:54:23;4.13;;;3.73;;
7759;SDS011;3924;48.830;9.262;2023-08-30T03:56:49;3.67;;;3.40;;
7759;SDS011;3924;48.830;9.262;2023-08-30T03:59:16;4.20;;;3.90;;
7759;SDS011;3924;48.830;9.262;2023-08-30T04:01:42;3.63;;;3.33;;
7759;SDS011;3924;48.830;9.262;2023-08-30T04:04:10;3.10;;;2.83;;
7759;SDS011;3924;48.830;9.262;2023-08-30T04:06:36;4.33;;;3.37;;
7759;SDS011;3924;48.830;9.262;2023-08-30T04:09:03;4.13;;;3.80;;
7759;SDS011;3924;48.830;9.262;2023-08-30T04:11:30;3.83;;;3.30;;
7759;SDS011;3924;48.830;9.262;2023-08-30T04:13:56;4.30;;;3.90;;
7759;SDS011;3924;48.830;9.262;2023-08-30T04:16:22;4.10;;;3.40;;
7759;SDS011;3924;48.830;9.262;2023-08-30T04:18:49;3.80;;;3.50;;
7759;SDS011;3924;48.830;9.262;2023-08-30T04:21:15;3.43;;;3.13;;
7759;SDS011;3924;48.830;9.262;2023-08-30T04:23:42;4.00;;;3.70;;
7759;SDS011;3924;48.830;9.262;2023-08-30T04:26:08;4.17;;;3.67;;
7759;SDS011;3924;48.830;9.262;2023-08-30T04:28:35;3.13;;;2.90;;
7759;SDS011;3924;48.830;9.262;2023-08-30T04:31:01;3.20;;;3.00;;
7759;SDS011;3924;48.830;9.262;2023-08-30T04:33:28;3.33;;;3.13;;
7759;SDS011;3924;48.830;9.262;2023-08-30T04:35:54;4.10;;;3.13;;
7759;SDS011;3924;48.830;9.262;2023-08-30T04:38:21;4.40;;;3.27;;
7759;SDS011;3924;48.830;9.262;2023-08-30T04:40:48;3.10;;;2.90;;
7759;SDS011;3924;48.830;9.262;2023-08-30T04:43:14;2.77;;;2.57;;
7759;SDS011;3924;48.830;9.262;2023-08-30T04:45:41;3.13;;;2.93;;
7759;SDS011;3924;48.830;9.262;2023-08-30T04:48:09;5.10;;;3.40;;
7759;SDS011;3924;48.830;9.262;2023-08-30T04:50:36;3.63;;;3.33;;
7759;SDS011;3924;48.830;9.262;2023-08-30T04:53:03;3.50;;;3.20;;
7759;SDS011;3924;48.830;9.262;2023-08-30T04:55:29;4.07;;;3.30;;
7759;SDS011;3924;48.830;9.262;2023-08-30T04:57:56;3.90;;;3.60;;
7759;SDS011;3924;48.830;9.262;2023-08-30T05:00:23;4.13;;;3.73;;
7759;SDS011;3924;48.830;9.262;2023-08-30T05:02:49;2.90;;;2.70;;
7759;SDS011;3924;48.830;9.262;2023-08-30T05:05:16;3.97;;;3.00;;
7759;SDS011;3924;48.830;9.262;2023-08-30T05:07:43;3.17;;;2.97;;
7759;SDS011;3924;48.830;9.262;2023-08-30T05:10:09;3.80;;;2.97;;
7759;SDS011;3924;48.830;9.262;2023-08-30T05:12:36;3.60;;;3.30;;
7759;SDS011;3924;48.830;9.262;2023-08-30T05:15:02;3.23;;;3.00;;
7759;SDS011;3924;48.830;9.262;2023-08-30T05:17:30;4.27;;;3.20;;
7759;SDS011;3924;48.830;9.262;2023-08-30T05:19:57;3.43;;;3.00;;
7759;SDS011;3924;48.830;9.262;2023-08-30T05:22:23;3.87;;;3.57;;
7759;SDS011;3924;48.830;9.262;2023-08-30T05:24:50;6.80;;;3.60;;
7759;SDS011;3924;48.830;9.262;2023-08-30T05:27:16;3.33;;;3.07;;
7759;SDS011;3924;48.830;9.262;2023-08-30T05:29:44;5.93;;;3.23;;
7759;SDS011;3924;48.830;9.262;2023-08-30T05:32:10;3.93;;;3.50;;
7759;SDS011;3924;48.830;9.262;2023-08-30T05:34:37;3.70;;;3.40;;
7759;SDS011;3924;48.830;9.262;2023-08-30T05:37:03;3.97;;;3.43;;
7759;SDS011;3924;48.830;9.262;2023-08-30T05:39:30;3.67;;;3.33;;
7759;SDS011;3924;48.830;9.262;2023-08-30T05:41:56;4.53;;;3.40;;
7759;SDS011;3924;48.830;9.262;2023-08-30T05:44:23;4.97;;;3.43;;
7759;SDS011;3924;48.830;9.262;2023-08-30T05:46:49;3.60;;;3.30;;
7759;SDS011;3924;48.830;9.262;2023-08-30T05:49:16;5.13;;;3.50;;
7759;SDS011;3924;48.830;9.262;2023-08-30T05:51:42;3.80;;;3.37;;
7759;SDS011;3924;48.830;9.262;2023-08-30T05:54:09;4.03;;;3.63;;
7759;SDS011;3924;48.830;9.262;2023-08-30T05:56:35;5.47;;;3.67;;
7759;SDS011;3924;48.830;9.262;2023-08-30T05:59:02;3.57;;;3.27;;
7759;SDS011;3924;48.830;9.262;2023-08-30T06:01:28;4.60;;;3.87;;
7759;SDS011;3924;48.830;9.262;2023-08-30T06:03:55;2.90;;;2.63;;
7759;SDS011;3924;48.830;9.262;2023-08-30T06:06:21;4.03;;;3.40;;
7759;SDS011;3924;48.830;9.262;2023-08-30T06:08:48;4.53;;;4.10;;
7759;SDS011;3924;48.830;9.262;2023-08-30T06:11:15;3.30;;;3.07;;
7759;SDS011;3924;48.830;9.262;2023-08-30T06:13:41;3.40;;;3.03;;
7759;SDS011;3924;48.830;9.262;2023-08-30T06:16:07;4.00;;;3.57;;
7759;SDS011;3924;48.830;9.262;2023-08-30T06:18:34;3.77;;;3.33;;
7759;SDS011;3924;48.830;9.262;2023-08-30T06:21:01;5.67;;;3.63;;
7759;SDS011;3924;48.830;9.262;2023-08-30T06:23:29;3.83;;;3.53;;
7759;SDS011;3924;48.830;9.262;2023-08-30T06:25:56;3.47;;;3.27;;
7759;SDS011;3924;48.830;9.262;2023-08-30T06:28:23;3.30;;;3.00;;
7759;SDS011;3924;48.830;9.262;2023-08-30T06:30:50;7.27;;;3.73;;
7759;SDS011;3924;48.830;9.262;2023-08-30T06:33:17;3.43;;;2.80;;
7759;SDS011;3924;48.830;9.262;2023-08-30T06:35:43;3.80;;;2.97;;
7759;SDS011;3924;48.830;9.262;2023-08-30T06:38:10;5.60;;;3.47;;
7759;SDS011;3924;48.830;9.262;2023-08-30T06:40:42;7.73;;;3.77;;
7759;SDS011;3924;48.830;9.262;2023-08-30T06:43:09;3.40;;;3.20;;
7759;SDS011;3924;48.830;9.262;2023-08-30T06:45:37;5.40;;;3.60;;
7759;SDS011;3924;48.830;9.262;2023-08-30T06:48:07;3.60;;;3.30;;
7759;SDS011;3924;48.830;9.262;2023-08-30T06:50:34;3.47;;;3.03;;
7759;SDS011;3924;48.830;9.262;2023-08-30T06:53:02;7.77;;;3.27;;
7759;SDS011;3924;48.830;9.262;2023-08-30T06:55:29;5.37;;;3.43;;
7759;SDS011;3924;48.830;9.262;2023-08-30T06:57:56;3.97;;;3.20;;
7759;SDS011;3924;48.830;9.262;2023-08-30T07:00:22;3.93;;;3.53;;
7759;SDS011;3924;48.830;9.262;2023-08-30T07:02:48;3.20;;;3.00;;
7759;SDS011;3924;48.830;9.262;2023-08-30T07:05:15;5.87;;;3.53;;
7759;SDS011;3924;48.830;9.262;2023-08-30T07:07:42;3.30;;;3.00;;
7759;SDS011;3924;48.830;9.262;2023-08-30T07:10:08;3.27;;;2.97;;
7759;SDS011;3924;48.830;9.262;2023-08-30T07:12:35;2.67;;;2.47;;
7759;SDS011;3924;48.830;9.262;2023-08-30T07:15:02;3.87;;;2.80;;
7759;SDS011;3924;48.830;9.262;2023-08-30T07:17:30;10.07;;;2.97;;
7759;SDS011;3924;48.830;9.262;2023-08-30T07:20:16;3.00;;;2.70;;
7759;SDS011;3924;48.830;9.262;2023-08-30T07:22:43;2.73;;;2.53;;
7759;SDS011;3924;48.830;9.262;2023-08-30T07:25:10;2.60;;;2.40;;
7759;SDS011;3924;48.830;9.262;2023-08-30T07:27:36;2.90;;;2.67;;
7759;SDS011;3924;48.830;9.262;2023-08-30T07:30:03;10.23;;;2.80;;
7759;SDS011;3924;48.830;9.262;2023-08-30T07:32:30;3.30;;;2.80;;
7759;SDS011;3924;48.830;9.262;2023-08-30T07:34:57;3.40;;;3.10;;
7759;SDS011;3924;48.830;9.262;2023-08-30T07:37:24;2.83;;;2.60;;
7759;SDS011;3924;48.830;9.262;2023-08-30T07:39:51;2.97;;;2.63;;
7759;SDS011;3924;48.830;9.262;2023-08-30T07:42:19;3.40;;;3.10;;
7759;SDS011;3924;48.830;9.262;2023-08-30T07:44:46;2.60;;;2.40;;
7759;SDS011;3924;48.830;9.262;2023-08-30T07:47:12;3.27;;;2.97;;
7759;SDS011;3924;48.830;9.262;2023-08-30T07:49:39;3.60;;;2.87;;
7759;SDS011;3924;48.830;9.262;2023-08-30T07:52:07;3.23;;;2.90;;
7759;SDS011;3924;48.830;9.262;2023-08-30T07:54:37;3.07;;;2.83;;
7759;SDS011;3924;48.830;9.262;2023-08-30T07:57:05;2.97;;;2.77;;
7759;SDS011;3924;48.830;9.262;2023-08-30T07:59:37;2.80;;;2.60;;
7759;SDS011;3924;48.830;9.262;2023-08-30T08:02:05;3.27;;;2.97;;
7759;SDS011;3924;48.830;9.262;2023-08-30T08:04:35;3.40;;;3.17;;
7759;SDS011;3924;48.830;9.262;2023-08-30T08:07:02;3.10;;;2.80;;
7759;SDS011;3924;48.830;9.262;2023-08-30T08:09:30;3.37;;;3.07;;
7759;SDS011;3924;48.830;9.262;2023-08-30T08:11:57;2.93;;;2.70;;
7759;SDS011;3924;48.830;9.262;2023-08-30T08:14:24;2.67;;;2.47;;
7759;SDS011;3924;48.830;9.262;2023-08-30T08:16:51;2.47;;;2.27;;
7759;SDS011;3924;48.830;9.262;2023-08-30T08:19:18;2.90;;;2.70;;
7759;SDS011;3924;48.830;9.262;2023-08-30T08:21:49;3.63;;;3.10;;
7759;SDS011;3924;48.830;9.262;2023-08-30T08:24:16;2.47;;;2.27;;
7759;SDS011;3924;48.830;9.262;2023-08-30T08:26:42;2.40;;;2.20;;
7759;SDS011;3924;48.830;9.262;2023-08-30T08:29:09;2.50;;;2.33;;
7759;SDS011;3924;48.830;9.262;2023-08-30T08:31:36;2.87;;;2.30;;
7759;SDS011;3924;48.830;9.262;2023-08-30T08:34:07;3.00;;;2.80;;
7759;SDS011;3924;48.830;9.262;2023-08-30T08:36:36;2.47;;;2.17;;
7759;SDS011;3924;48.830;9.262;2023-08-30T08:39:04;3.23;;;2.53;;
7759;SDS011;3924;48.830;9.262;2023-08-30T08:41:34;2.37;;;2.27;;
7759;SDS011;3924;48.830;9.262;2023-08-30T08:44:11;3.63;;;2.80;;
7759;SDS011;3924;48.830;9.262;2023-08-30T08:46:39;2.50;;;2.30;;
7759;SDS011;3924;48.830;9.262;2023-08-30T08:49:14;3.87;;;2.80;;
7759;SDS011;3924;48.830;9.262;2023-08-30T08:51:42;2.60;;;2.40;;
7759;SDS011;3924;48.830;9.262;2023-08-30T08:54:10;2.20;;;2.10;;
7759;SDS011;3924;48.830;9.262;2023-08-30T08:56:38;2.40;;;2.30;;
7759;SDS011;3924;48.830;9.262;2023-08-30T08:59:05;2.57;;;2.00;;
7759;SDS011;3924;48.830;9.262;2023-08-30T09:01:34;2.80;;;2.53;;
7759;SDS011;3924;48.830;9.262;2023-08-30T09:04:06;2.30;;;2.00;;
7759;SDS011;3924;48.830;9.262;2023-08-30T09:06:34;2.87;;;1.80;;
7759;SDS011;3924;48.830;9.262;2023-08-30T09:09:02;5.43;;;2.03;;
7759;SDS011;3924;48.830;9.262;2023-08-30T09:11:34;2.40;;;2.20;;
7759;SDS011;3924;48.830;9.262;2023-08-30T09:14:16;2.10;;;1.97;;
7759;SDS011;3924;48.830;9.262;2023-08-30T09:16:43;2.03;;;1.93;;
7759;SDS011;3924;48.830;9.262;2023-08-30T09:19:20;1.70;;;1.60;;
7759;SDS011;3924;48.830;9.262;2023-08-30T09:21:51;2.33;;;2.13;;
7759;SDS011;3924;48.830;9.262;2023-08-30T09:24:19;2.30;;;2.20;;
7759;SDS011;3924;48.830;9.262;2023-08-30T09:26:52;2.10;;;2.00;;
7759;SDS011;3924;48.830;9.262;2023-08-30T09:29:21;2.77;;;2.57;;
7759;SDS011;3924;48.830;9.262;2023-08-30T09:31:52;2.13;;;2.03;;
7759;SDS011;3924;48.830;9.262;2023-08-30T09:34:22;2.50;;;2.30;;
7759;SDS011;3924;48.830;9.262;2023-08-30T09:36:50;1.63;;;1.53;;
7759;SDS011;3924;48.830;9.262;2023-08-30T09:39:17;2.33;;;2.17;;
7759;SDS011;3924;48.830;9.262;2023-08-30T09:41:45;1.90;;;1.80;;
7759;SDS011;3924;48.830;9.262;2023-08-30T09:44:13;2.17;;;2.07;;
7759;SDS011;3924;48.830;9.262;2023-08-30T09:46:45;3.77;;;1.73;;
7759;SDS011;3924;48.830;9.262;2023-08-30T09:49:19;1.90;;;1.70;;
7759;SDS011;3924;48.830;9.262;2023-08-30T09:51:50;1.50;;;1.40;;
7759;SDS011;3924;48.830;9.262;2023-08-30T09:54:19;7.70;;;2.00;;
7759;SDS011;3924;48.830;9.262;2023-08-30T09:56:50;1.60;;;1.50;;
7759;SDS011;3924;48.830;9.262;2023-08-30T09:59:19;7.30;;;1.60;;
7759;SDS011;3924;48.830;9.262;2023-08-30T10:01:46;1.90;;;1.80;;
7759;SDS011;3924;48.830;9.262;2023-08-30T10:04:14;1.80;;;1.70;;
7759;SDS011;3924;48.830;9.262;2023-08-30T10:06:41;2.53;;;1.80;;
7759;SDS011;3924;48.830;9.262;2023-08-30T10:09:09;1.23;;;1.23;;
7759;SDS011;3924;48.830;9.262;2023-08-30T10:11:36;1.67;;;1.57;;
7759;SDS011;3924;48.830;9.262;2023-08-30T10:14:04;1.90;;;1.53;;
7759;SDS011;3924;48.830;9.262;2023-08-30T10:19:11;1.63;;;1.53;;
7759;SDS011;3924;48.830;9.262;2023-08-30T10:21:46;1.37;;;1.27;;
7759;SDS011;3924;48.830;9.262;2023-08-30T10:24:14;1.63;;;1.53;;
7759;SDS011;3924;48.830;9.262;2023-08-30T10:26:57;1.77;;;1.43;;
7759;SDS011;3924;48.830;9.262;2023-08-30T10:29:27;1.43;;;1.33;;
7759;SDS011;3924;48.830;9.262;2023-08-30T10:31:55;1.40;;;1.30;;
7759;SDS011;3924;48.830;9.262;2023-08-30T10:34:21;1.27;;;1.17;;
7759;SDS011;3924;48.830;9.262;2023-08-30T10:36:59;1.63;;;1.43;;
7759;SDS011;3924;48.830;9.262;2023-08-30T10:39:36;1.37;;;1.30;;
7759;SDS011;3924;48.830;9.262;2023-08-30T10:42:08;2.03;;;1.10;;
7759;SDS011;3924;48.830;9.262;2023-08-30T10:44:47;0.87;;;0.87;;
7759;SDS011;3924;48.830;9.262;2023-08-30T10:47:23;1.37;;;1.27;;
7759;SDS011;3924;48.830;9.262;2023-08-30T10:49:55;1.00;;;1.00;;
7759;SDS011;3924;48.830;9.262;2023-08-30T10:52:23;0.97;;;0.97;;
7759;SDS011;3924;48.830;9.262;2023-08-30T10:54:51;2.00;;;1.00;;
7759;SDS011;3924;48.830;9.262;2023-08-30T10:57:19;1.03;;;1.03;;
7759;SDS011;3924;48.830;9.262;2023-08-30T11:02:36;0.97;;;0.97;;
7759;SDS011;3924;48.830;9.262;2023-08-30T11:05:09;1.10;;;1.00;;
7759;SDS011;3924;48.830;9.262;2023-08-30T11:07:35;1.03;;;1.03;;
7759;SDS011;3924;48.830;9.262;2023-08-30T11:10:06;1.03;;;1.03;;
7759;SDS011;3924;48.830;9.262;2023-08-30T11:12:33;1.00;;;1.00;;
7759;SDS011;3924;48.830;9.262;2023-08-30T11:14:59;1.33;;;1.13;;
7759;SDS011;3924;48.830;9.262;2023-08-30T11:17:26;1.10;;;1.00;;
7759;SDS011;3924;48.830;9.262;2023-08-30T11:22:52;1.53;;;1.30;;
7759;SDS011;3924;48.830;9.262;2023-08-30T11:25:21;1.30;;;1.20;;
7759;SDS011;3924;48.830;9.262;2023-08-30T11:27:48;0.83;;;0.83;;
7759;SDS011;3924;48.830;9.262;2023-08-30T11:30:14;0.90;;;0.90;;
7759;SDS011;3924;48.830;9.262;2023-08-30T11:32:41;0.97;;;0.97;;
7759;SDS011;3924;48.830;9.262;2023-08-30T11:35:09;1.00;;;1.00;;
7759;SDS011;3924;48.830;9.262;2023-08-30T11:37:36;1.20;;;1.20;;
7759;SDS011;3924;48.830;9.262;2023-08-30T11:40:03;1.20;;;1.10;;
7759;SDS011;3924;48.830;9.262;2023-08-30T11:42:32;1.10;;;1.10;;
7759;SDS011;3924;48.830;9.262;2023-08-30T11:44:59;1.20;;;1.10;;
7759;SDS011;3924;48.830;9.262;2023-08-30T11:47:27;1.00;;;1.00;;
7759;SDS011;3924;48.830;9.262;2023-08-30T11:49:55;0.90;;;0.90;;
7759;SDS011;3924;48.830;9.262;2023-08-30T11:52:23;1.07;;;0.97;;
7759;SDS011;3924;48.830;9.262;2023-08-30T11:54:51;0.87;;;0.87;;
7759;SDS011;3924;48.830;9.262;2023-08-30T11:57:19;1.10;;;1.10;;
7759;SDS011;3924;48.830;9.262;2023-08-30T11:59:46;0.93;;;0.93;;
7759;SDS011;3924;48.830;9.262;2023-08-30T12:02:14;1.10;;;1.10;;
7759;SDS011;3924;48.830;9.262;2023-08-30T12:04:43;1.60;;;1.13;;
7759;SDS011;3924;48.830;9.262;2023-08-30T12:07:26;2.07;;;1.87;;
7759;SDS011;3924;48.830;9.262;2023-08-30T12:10:04;1.40;;;1.40;;
7759;SDS011;3924;48.830;9.262;2023-08-30T12:12:31;1.70;;;1.60;;
7759;SDS011;3924;48.830;9.262;2023-08-30T12:14:58;3.30;;;2.10;;
7759;SDS011;3924;48.830;9.262;2023-08-30T12:17:24;1.80;;;1.57;;
7759;SDS011;3924;48.830;9.262;2023-08-30T12:19:58;1.50;;;1.40;;
7759;SDS011;3924;48.830;9.262;2023-08-30T12:22:37;1.20;;;1.20;;
7759;SDS011;3924;48.830;9.262;2023-08-30T12:25:15;2.07;;;1.97;;
7759;SDS011;3924;48.830;9.262;2023-08-30T12:27:46;1.80;;;1.70;;
7759;SDS011;3924;48.830;9.262;2023-08-30T12:30:13;2.77;;;2.43;;
7759;SDS011;3924;48.830;9.262;2023-08-30T12:32:43;2.37;;;2.17;;
7759;SDS011;3924;48.830;9.262;2023-08-30T12:35:10;3.73;;;2.03;;
7759;SDS011;3924;48.830;9.262;2023-08-30T12:37:37;2.27;;;2.17;;
7759;SDS011;3924;48.830;9.262;2023-08-30T12:40:04;2.40;;;2.13;;
7759;SDS011;3924;48.830;9.262;2023-08-30T12:42:32;1.80;;;1.70;;
7759;SDS011;3924;48.830;9.262;2023-08-30T12:44:59;1.50;;;1.40;;
7759;SDS011;3924;48.830;9.262;2023-08-30T12:47:27;1.90;;;1.70;;
7759;SDS011;3924;48.830;9.262;2023-08-30T12:49:54;2.13;;;2.00;;
7759;SDS011;3924;48.830;9.262;2023-08-30T12:52:21;1.60;;;1.50;;
7759;SDS011;3924;48.830;9.262;2023-08-30T12:54:47;1.27;;;1.27;;
7759;SDS011;3924;48.830;9.262;2023-08-30T12:57:14;1.37;;;1.27;;
7759;SDS011;3924;48.830;9.262;2023-08-30T12:59:40;3.37;;;1.47;;
7759;SDS011;3924;48.830;9.262;2023-08-30T13:02:07;4.53;;;1.30;;
7759;SDS011;3924;48.830;9.262;2023-08-30T13:04:34;1.17;;;1.17;;
7759;SDS011;3924;48.830;9.262;2023-08-30T13:07:04;1.63;;;1.53;;
7759;SDS011;3924;48.830;9.262;2023-08-30T13:09:31;1.10;;;1.10;;
7759;SDS011;3924;48.830;9.262;2023-08-30T13:11:57;1.20;;;1.20;;
7759;SDS011;3924;48.830;9.262;2023-08-30T13:14:23;1.50;;;1.40;;
7759;SDS011;3924;48.830;9.262;2023-08-30T13:16:50;1.57;;;1.43;;
7759;SDS011;3924;48.830;9.262;2023-08-30T13:19:17;1.23;;;1.10;;
7759;SDS011;3924;48.830;9.262;2023-08-30T13:21:43;1.40;;;1.30;;
7759;SDS011;3924;48.830;9.262;2023-08-30T13:24:09;1.00;;;1.00;;
7759;SDS011;3924;48.830;9.262;2023-08-30T13:26:37;1.23;;;1.13;;
7759;SDS011;3924;48.830;9.262;2023-08-30T13:29:04;1.13;;;1.10;;
7759;SDS011;3924;48.830;9.262;2023-08-30T13:31:31;1.30;;;1.20;;
7759;SDS011;3924;48.830;9.262;2023-08-30T13:33:57;10.20;;;1.03;;
7759;SDS011;3924;48.830;9.262;2023-08-30T13:36:25;0.90;;;0.80;;
7759;SDS011;3924;48.830;9.262;2023-08-30T13:38:51;1.30;;;1.10;;
7759;SDS011;3924;48.830;9.262;2023-08-30T13:41:19;2.47;;;1.33;;
7759;SDS011;3924;48.830;9.262;2023-08-30T13:43:45;0.67;;;0.67;;
7759;SDS011;3924;48.830;9.262;2023-08-30T13:46:12;2.17;;;0.93;;
7759;SDS011;3924;48.830;9.262;2023-08-30T13:48:38;0.60;;;0.60;;
7759;SDS011;3924;48.830;9.262;2023-08-30T13:51:05;1.87;;;0.93;;
7759;SDS011;3924;48.830;9.262;2023-08-30T13:53:31;1.00;;;1.00;;
7759;SDS011;3924;48.830;9.262;2023-08-30T13:55:58;0.70;;;0.70;;
7759;SDS011;3924;48.830;9.262;2023-08-30T13:58:24;2.10;;;1.03;;
7759;SDS011;3924;48.830;9.262;2023-08-30T14:00:51;1.00;;;1.00;;
7759;SDS011;3924;48.830;9.262;2023-08-30T14:03:17;0.73;;;0.73;;
7759;SDS011;3924;48.830;9.262;2023-08-30T14:05:44;3.20;;;1.10;;
7759;SDS011;3924;48.830;9.262;2023-08-30T14:08:10;1.30;;;1.20;;
7759;SDS011;3924;48.830;9.262;2023-08-30T14:10:37;0.83;;;0.83;;
7759;SDS011;3924;48.830;9.262;2023-08-30T14:13:04;1.00;;;1.00;;
7759;SDS011;3924;48.830;9.262;2023-08-30T14:15:31;1.03;;;1.03;;
7759;SDS011;3924;48.830;9.262;2023-08-30T14:17:58;0.90;;;0.90;;
7759;SDS011;3924;48.830;9.262;2023-08-30T14:20:25;1.33;;;0.80;;
7759;SDS011;3924;48.830;9.262;2023-08-30T14:22:51;1.80;;;0.83;;
7759;SDS011;3924;48.830;9.262;2023-08-30T14:25:18;0.83;;;0.83;;
7759;SDS011;3924;48.830;9.262;2023-08-30T14:27:44;2.23;;;0.73;;
7759;SDS011;3924;48.830;9.262;2023-08-30T14:30:11;1.20;;;1.10;;
7759;SDS011;3924;48.830;9.262;2023-08-30T14:32:37;1.17;;;0.93;;
7759;SDS011;3924;48.830;9.262;2023-08-30T14:35:04;0.90;;;0.90;;
7759;SDS011;3924;48.830;9.262;2023-08-30T14:37:31;1.10;;;1.03;;
7759;SDS011;3924;48.830;9.262;2023-08-30T14:39:58;1.00;;;1.00;;
7759;SDS011;3924;48.830;9.262;2023-08-30T14:42:24;0.83;;;0.83;;
7759;SDS011;3924;48.830;9.262;2023-08-30T14:44:52;0.57;;;0.57;;
7759;SDS011;3924;48.830;9.262;2023-08-30T14:47:18;0.80;;;0.80;;
7759;SDS011;3924;48.830;9.262;2023-08-30T14:49:47;0.70;;;0.70;;
7759;SDS011;3924;48.830;9.262;2023-08-30T14:52:13;0.90;;;0.77;;
7759;SDS011;3924;48.830;9.262;2023-08-30T14:54:40;0.90;;;0.80;;
7759;SDS011;3924;48.830;9.262;2023-08-30T14:57:07;1.00;;;1.00;;
7759;SDS011;3924;48.830;9.262;2023-08-30T14:59:33;0.90;;;0.90;;
7759;SDS011;3924;48.830;9.262;2023-08-30T15:02:00;0.80;;;0.80;;
7759;SDS011;3924;48.830;9.262;2023-08-30T15:04:27;0.93;;;0.93;;
7759;SDS011;3924;48.830;9.262;2023-08-30T15:06:53;0.70;;;0.70;;
7759;SDS011;3924;48.830;9.262;2023-08-30T15:09:20;1.00;;;1.00;;
7759;SDS011;3924;48.830;9.262;2023-08-30T15:11:46;0.80;;;0.80;;
7759;SDS011;3924;48.830;9.262;2023-08-30T15:14:13;1.10;;;1.10;;
7759;SDS011;3924;48.830;9.262;2023-08-30T15:16:39;1.00;;;1.00;;
7759;SDS011;3924;48.830;9.262;2023-08-30T15:19:06;1.10;;;1.10;;
7759;SDS011;3924;48.830;9.262;2023-08-30T15:21:32;1.20;;;1.07;;
7759;SDS011;3924;48.830;9.262;2023-08-30T15:23:59;1.10;;;1.07;;
7759;SDS011;3924;48.830;9.262;2023-08-30T15:26:25;0.93;;;0.93;;
7759;SDS011;3924;48.830;9.262;2023-08-30T15:28:52;1.03;;;0.80;;
7759;SDS011;3924;48.830;9.262;2023-08-30T15:31:18;0.70;;;0.70;;